sensor_id;sensor_type;location;lat;lon;timestamp;P1;durP1;ratioP1;P2;durP2;ratioP2
69783;SDS011;57054;51.978;4.498;2023-03-01T00:01:01;8.25;;;7.40;;
69783;SDS011;57054;51.978;4.498;2023-03-01T00:03:28;8.07;;;7.28;;
69783;SDS011;57054;51.978;4.498;2023-03-01T00:05:53;8.30;;;7.00;;
69783;SDS011;57054;51.978;4.498;2023-03-01T00:08:18;8.27;;;7.45;;
69783;SDS011;57054;51.978;4.498;2023-03-01T00:10:44;9.15;;;7.85;;
69783;SDS011;57054;51.978;4.498;2023-03-01T00:13:09;8.45;;;7.05;;
69783;SDS011;57054;51.978;4.498;2023-03-01T00:15:37;8.18;;;6.90;;
69783;SDS011;57054;51.978;4.498;2023-03-01T00:18:06;8.57;;;7.68;;
69783;SDS011;57054;51.978;4.498;2023-03-01T00:20:33;9.07;;;8.00;;
69783;SDS011;57054;51.978;4.498;2023-03-01T00:22:59;8.55;;;7.65;;
69783;SDS011;57054;51.978;4.498;2023-03-01T00:25:24;7.75;;;6.88;;
69783;SDS011;57054;51.978;4.498;2023-03-01T00:27:49;8.43;;;7.53;;
69783;SDS011;57054;51.978;4.498;2023-03-01T00:30:15;8.18;;;7.40;;
69783;SDS011;57054;51.978;4.498;2023-03-01T00:32:40;9.25;;;8.00;;
69783;SDS011;57054;51.978;4.498;2023-03-01T00:35:06;9.15;;;8.02;;
69783;SDS011;57054;51.978;4.498;2023-03-01T00:37:32;8.23;;;7.40;;
69783;SDS011;57054;51.978;4.498;2023-03-01T00:39:57;8.18;;;7.38;;
69783;SDS011;57054;51.978;4.498;2023-03-01T00:42:22;8.63;;;7.38;;
69783;SDS011;57054;51.978;4.498;2023-03-01T00:44:48;8.45;;;7.47;;
69783;SDS011;57054;51.978;4.498;2023-03-01T00:47:13;7.28;;;6.57;;
69783;SDS011;57054;51.978;4.498;2023-03-01T00:49:38;11.75;;;7.78;;
69783;SDS011;57054;51.978;4.498;2023-03-01T00:52:04;7.82;;;7.03;;
69783;SDS011;57054;51.978;4.498;2023-03-01T00:54:29;8.73;;;6.97;;
69783;SDS011;57054;51.978;4.498;2023-03-01T00:56:55;7.85;;;7.03;;
69783;SDS011;57054;51.978;4.498;2023-03-01T00:59:20;7.65;;;6.95;;
69783;SDS011;57054;51.978;4.498;2023-03-01T01:01:45;7.80;;;7.00;;
69783;SDS011;57054;51.978;4.498;2023-03-01T01:04:12;7.68;;;6.60;;
69783;SDS011;57054;51.978;4.498;2023-03-01T01:06:39;7.53;;;6.82;;
69783;SDS011;57054;51.978;4.498;2023-03-01T01:09:10;7.50;;;6.80;;
69783;SDS011;57054;51.978;4.498;2023-03-01T01:11:42;8.07;;;7.20;;
69783;SDS011;57054;51.978;4.498;2023-03-01T01:14:08;8.20;;;7.40;;
69783;SDS011;57054;51.978;4.498;2023-03-01T01:16:33;7.43;;;6.68;;
69783;SDS011;57054;51.978;4.498;2023-03-01T01:18:59;7.47;;;6.78;;
69783;SDS011;57054;51.978;4.498;2023-03-01T01:21:24;7.55;;;6.72;;
69783;SDS011;57054;51.978;4.498;2023-03-01T01:23:51;7.68;;;6.78;;
69783;SDS011;57054;51.978;4.498;2023-03-01T01:26:18;7.63;;;6.70;;
69783;SDS011;57054;51.978;4.498;2023-03-01T01:31:11;8.00;;;7.15;;
69783;SDS011;57054;51.978;4.498;2023-03-01T01:33:37;9.60;;;6.95;;
69783;SDS011;57054;51.978;4.498;2023-03-01T01:36:03;7.97;;;7.25;;
69783;SDS011;57054;51.978;4.498;2023-03-01T01:38:29;6.97;;;6.38;;
69783;SDS011;57054;51.978;4.498;2023-03-01T01:40:54;7.30;;;6.63;;
69783;SDS011;57054;51.978;4.498;2023-03-01T01:43:22;6.70;;;6.10;;
69783;SDS011;57054;51.978;4.498;2023-03-01T01:45:59;6.88;;;6.28;;
69783;SDS011;57054;51.978;4.498;2023-03-01T01:48:29;6.90;;;6.30;;
69783;SDS011;57054;51.978;4.498;2023-03-01T01:51:05;6.57;;;5.78;;
69783;SDS011;57054;51.978;4.498;2023-03-01T01:53:36;7.72;;;6.63;;
69783;SDS011;57054;51.978;4.498;2023-03-01T01:56:02;7.50;;;6.65;;
69783;SDS011;57054;51.978;4.498;2023-03-01T01:58:31;7.88;;;7.07;;
69783;SDS011;57054;51.978;4.498;2023-03-01T02:00:56;7.03;;;5.97;;
69783;SDS011;57054;51.978;4.498;2023-03-01T02:03:23;6.72;;;6.10;;
69783;SDS011;57054;51.978;4.498;2023-03-01T02:05:56;8.52;;;7.13;;
69783;SDS011;57054;51.978;4.498;2023-03-01T02:08:29;7.80;;;7.00;;
69783;SDS011;57054;51.978;4.498;2023-03-01T02:10:58;7.35;;;6.65;;
69783;SDS011;57054;51.978;4.498;2023-03-01T02:13:29;7.00;;;6.30;;
69783;SDS011;57054;51.978;4.498;2023-03-01T02:15:56;7.63;;;6.75;;
69783;SDS011;57054;51.978;4.498;2023-03-01T02:18:21;8.57;;;7.20;;
69783;SDS011;57054;51.978;4.498;2023-03-01T02:23:33;7.70;;;6.82;;
69783;SDS011;57054;51.978;4.498;2023-03-01T02:28:33;7.40;;;6.70;;
69783;SDS011;57054;51.978;4.498;2023-03-01T02:31:01;9.25;;;7.18;;
69783;SDS011;57054;51.978;4.498;2023-03-01T02:33:46;7.75;;;6.90;;
69783;SDS011;57054;51.978;4.498;2023-03-01T02:36:17;7.90;;;7.05;;
69783;SDS011;57054;51.978;4.498;2023-03-01T02:38:48;8.13;;;6.90;;
69783;SDS011;57054;51.978;4.498;2023-03-01T02:41:16;8.15;;;7.05;;
69783;SDS011;57054;51.978;4.498;2023-03-01T02:43:44;8.43;;;7.25;;
69783;SDS011;57054;51.978;4.498;2023-03-01T02:46:17;9.80;;;8.02;;
69783;SDS011;57054;51.978;4.498;2023-03-01T02:48:48;8.65;;;7.50;;
69783;SDS011;57054;51.978;4.498;2023-03-01T02:57:04;7.82;;;6.97;;
69783;SDS011;57054;51.978;4.498;2023-03-01T02:59:31;7.78;;;6.97;;
69783;SDS011;57054;51.978;4.498;2023-03-01T03:02:04;8.90;;;7.13;;
69783;SDS011;57054;51.978;4.498;2023-03-01T03:04:30;7.90;;;7.05;;
69783;SDS011;57054;51.978;4.498;2023-03-01T03:06:56;9.77;;;7.53;;
69783;SDS011;57054;51.978;4.498;2023-03-01T03:09:22;8.45;;;7.65;;
69783;SDS011;57054;51.978;4.498;2023-03-01T03:11:47;9.38;;;7.60;;
69783;SDS011;57054;51.978;4.498;2023-03-01T03:14:14;9.00;;;8.10;;
69783;SDS011;57054;51.978;4.498;2023-03-01T03:16:41;8.77;;;7.88;;
69783;SDS011;57054;51.978;4.498;2023-03-01T03:19:08;9.40;;;7.70;;
69783;SDS011;57054;51.978;4.498;2023-03-01T03:21:34;9.02;;;7.80;;
69783;SDS011;57054;51.978;4.498;2023-03-01T03:23:59;9.07;;;7.63;;
69783;SDS011;57054;51.978;4.498;2023-03-01T03:26:25;7.97;;;7.18;;
69783;SDS011;57054;51.978;4.498;2023-03-01T03:28:50;8.18;;;7.32;;
69783;SDS011;57054;51.978;4.498;2023-03-01T03:31:16;8.52;;;7.30;;
69783;SDS011;57054;51.978;4.498;2023-03-01T03:33:41;10.38;;;7.50;;
69783;SDS011;57054;51.978;4.498;2023-03-01T03:36:07;8.30;;;7.07;;
69783;SDS011;57054;51.978;4.498;2023-03-01T03:38:38;11.07;;;8.13;;
69783;SDS011;57054;51.978;4.498;2023-03-01T03:41:07;10.15;;;8.48;;
69783;SDS011;57054;51.978;4.498;2023-03-01T03:43:34;9.40;;;8.18;;
69783;SDS011;57054;51.978;4.498;2023-03-01T03:46:01;10.27;;;8.20;;
69783;SDS011;57054;51.978;4.498;2023-03-01T03:48:30;10.15;;;8.80;;
69783;SDS011;57054;51.978;4.498;2023-03-01T03:50:57;11.95;;;8.55;;
69783;SDS011;57054;51.978;4.498;2023-03-01T03:53:24;10.90;;;8.57;;
69783;SDS011;57054;51.978;4.498;2023-03-01T03:55:50;10.30;;;8.27;;
69783;SDS011;57054;51.978;4.498;2023-03-01T03:58:16;9.57;;;8.32;;
69783;SDS011;57054;51.978;4.498;2023-03-01T04:00:45;11.02;;;8.40;;
69783;SDS011;57054;51.978;4.498;2023-03-01T04:03:11;12.02;;;9.23;;
69783;SDS011;57054;51.978;4.498;2023-03-01T04:05:39;9.60;;;8.38;;
69783;SDS011;57054;51.978;4.498;2023-03-01T04:08:06;12.73;;;9.10;;
69783;SDS011;57054;51.978;4.498;2023-03-01T04:10:36;10.77;;;8.40;;
69783;SDS011;57054;51.978;4.498;2023-03-01T04:13:03;10.98;;;8.88;;
69783;SDS011;57054;51.978;4.498;2023-03-01T04:15:34;10.88;;;8.70;;
69783;SDS011;57054;51.978;4.498;2023-03-01T04:18:00;11.95;;;9.05;;
69783;SDS011;57054;51.978;4.498;2023-03-01T04:20:27;11.00;;;8.80;;
69783;SDS011;57054;51.978;4.498;2023-03-01T04:22:59;10.02;;;8.48;;
69783;SDS011;57054;51.978;4.498;2023-03-01T04:25:35;10.98;;;8.70;;
69783;SDS011;57054;51.978;4.498;2023-03-01T04:28:04;10.50;;;9.07;;
69783;SDS011;57054;51.978;4.498;2023-03-01T04:30:30;10.00;;;8.80;;
69783;SDS011;57054;51.978;4.498;2023-03-01T04:33:00;12.32;;;8.82;;
69783;SDS011;57054;51.978;4.498;2023-03-01T04:35:27;11.38;;;8.57;;
69783;SDS011;57054;51.978;4.498;2023-03-01T04:37:52;9.70;;;8.18;;
69783;SDS011;57054;51.978;4.498;2023-03-01T04:40:18;11.20;;;9.98;;
69783;SDS011;57054;51.978;4.498;2023-03-01T04:42:43;10.85;;;9.18;;
69783;SDS011;57054;51.978;4.498;2023-03-01T04:45:09;11.35;;;8.80;;
69783;SDS011;57054;51.978;4.498;2023-03-01T04:47:38;12.13;;;9.40;;
69783;SDS011;57054;51.978;4.498;2023-03-01T04:50:09;15.70;;;9.60;;
69783;SDS011;57054;51.978;4.498;2023-03-01T04:52:35;11.68;;;9.65;;
69783;SDS011;57054;51.978;4.498;2023-03-01T04:55:01;13.45;;;9.77;;
69783;SDS011;57054;51.978;4.498;2023-03-01T04:57:27;13.48;;;10.35;;
69783;SDS011;57054;51.978;4.498;2023-03-01T04:59:52;12.82;;;10.38;;
69783;SDS011;57054;51.978;4.498;2023-03-01T05:02:18;12.82;;;10.25;;
69783;SDS011;57054;51.978;4.498;2023-03-01T05:04:43;12.30;;;8.93;;
69783;SDS011;57054;51.978;4.498;2023-03-01T05:07:08;15.10;;;10.23;;
69783;SDS011;57054;51.978;4.498;2023-03-01T05:09:34;13.60;;;10.07;;
69783;SDS011;57054;51.978;4.498;2023-03-01T05:11:59;14.02;;;9.57;;
69783;SDS011;57054;51.978;4.498;2023-03-01T05:14:25;12.93;;;10.27;;
69783;SDS011;57054;51.978;4.498;2023-03-01T05:16:50;10.93;;;9.65;;
69783;SDS011;57054;51.978;4.498;2023-03-01T05:19:16;9.73;;;8.73;;
69783;SDS011;57054;51.978;4.498;2023-03-01T05:21:41;11.25;;;9.05;;
69783;SDS011;57054;51.978;4.498;2023-03-01T05:24:26;11.95;;;9.30;;
69783;SDS011;57054;51.978;4.498;2023-03-01T05:26:52;11.40;;;9.02;;
69783;SDS011;57054;51.978;4.498;2023-03-01T05:29:19;14.32;;;10.70;;
69783;SDS011;57054;51.978;4.498;2023-03-01T05:31:50;12.35;;;9.90;;
69783;SDS011;57054;51.978;4.498;2023-03-01T05:34:17;10.73;;;9.07;;
69783;SDS011;57054;51.978;4.498;2023-03-01T05:36:42;12.65;;;9.35;;
69783;SDS011;57054;51.978;4.498;2023-03-01T05:39:07;12.77;;;9.27;;
69783;SDS011;57054;51.978;4.498;2023-03-01T05:41:33;10.63;;;9.02;;
69783;SDS011;57054;51.978;4.498;2023-03-01T05:43:58;11.63;;;9.10;;
69783;SDS011;57054;51.978;4.498;2023-03-01T05:46:24;10.25;;;8.90;;
69783;SDS011;57054;51.978;4.498;2023-03-01T05:48:49;14.65;;;9.75;;
69783;SDS011;57054;51.978;4.498;2023-03-01T05:51:14;14.02;;;10.55;;
69783;SDS011;57054;51.978;4.498;2023-03-01T05:53:40;12.75;;;10.00;;
69783;SDS011;57054;51.978;4.498;2023-03-01T05:56:05;13.77;;;10.38;;
69783;SDS011;57054;51.978;4.498;2023-03-01T05:58:31;13.00;;;10.13;;
69783;SDS011;57054;51.978;4.498;2023-03-01T06:00:56;13.50;;;9.88;;
69783;SDS011;57054;51.978;4.498;2023-03-01T06:03:22;11.13;;;9.20;;
69783;SDS011;57054;51.978;4.498;2023-03-01T06:05:47;12.15;;;9.38;;
69783;SDS011;57054;51.978;4.498;2023-03-01T06:08:13;13.15;;;10.00;;
69783;SDS011;57054;51.978;4.498;2023-03-01T06:10:38;14.82;;;10.52;;
69783;SDS011;57054;51.978;4.498;2023-03-01T06:13:04;12.07;;;9.73;;
69783;SDS011;57054;51.978;4.498;2023-03-01T06:15:30;11.73;;;9.52;;
69783;SDS011;57054;51.978;4.498;2023-03-01T06:17:56;12.32;;;9.80;;
69783;SDS011;57054;51.978;4.498;2023-03-01T06:20:22;13.25;;;10.40;;
69783;SDS011;57054;51.978;4.498;2023-03-01T06:22:50;12.02;;;9.98;;
69783;SDS011;57054;51.978;4.498;2023-03-01T06:25:16;13.63;;;9.73;;
69783;SDS011;57054;51.978;4.498;2023-03-01T06:27:43;11.67;;;10.47;;
69783;SDS011;57054;51.978;4.498;2023-03-01T06:30:10;12.32;;;9.85;;
69783;SDS011;57054;51.978;4.498;2023-03-01T06:32:38;10.50;;;8.90;;
69783;SDS011;57054;51.978;4.498;2023-03-01T06:35:06;10.10;;;8.60;;
69783;SDS011;57054;51.978;4.498;2023-03-01T06:37:33;11.55;;;9.50;;
69783;SDS011;57054;51.978;4.498;2023-03-01T06:40:00;10.63;;;9.40;;
69783;SDS011;57054;51.978;4.498;2023-03-01T06:42:29;9.93;;;8.25;;
69783;SDS011;57054;51.978;4.498;2023-03-01T06:44:55;9.50;;;8.15;;
69783;SDS011;57054;51.978;4.498;2023-03-01T06:47:20;9.70;;;8.32;;
69783;SDS011;57054;51.978;4.498;2023-03-01T06:49:45;9.93;;;8.93;;
69783;SDS011;57054;51.978;4.498;2023-03-01T06:52:11;10.70;;;8.38;;
69783;SDS011;57054;51.978;4.498;2023-03-01T06:54:36;9.35;;;8.38;;
69783;SDS011;57054;51.978;4.498;2023-03-01T06:57:02;11.55;;;8.90;;
69783;SDS011;57054;51.978;4.498;2023-03-01T06:59:27;10.07;;;8.93;;
69783;SDS011;57054;51.978;4.498;2023-03-01T07:01:52;9.73;;;8.73;;
69783;SDS011;57054;51.978;4.498;2023-03-01T07:04:18;9.50;;;8.52;;
69783;SDS011;57054;51.978;4.498;2023-03-01T07:06:43;9.63;;;8.63;;
69783;SDS011;57054;51.978;4.498;2023-03-01T07:09:08;11.30;;;8.80;;
69783;SDS011;57054;51.978;4.498;2023-03-01T07:11:34;10.15;;;8.82;;
69783;SDS011;57054;51.978;4.498;2023-03-01T07:13:59;11.95;;;9.80;;
69783;SDS011;57054;51.978;4.498;2023-03-01T07:16:25;12.00;;;10.25;;
69783;SDS011;57054;51.978;4.498;2023-03-01T07:18:50;11.50;;;9.65;;
69783;SDS011;57054;51.978;4.498;2023-03-01T07:21:15;12.52;;;9.40;;
69783;SDS011;57054;51.978;4.498;2023-03-01T07:23:41;13.25;;;10.13;;
69783;SDS011;57054;51.978;4.498;2023-03-01T07:26:07;13.85;;;9.77;;
69783;SDS011;57054;51.978;4.498;2023-03-01T07:28:32;12.75;;;10.55;;
69783;SDS011;57054;51.978;4.498;2023-03-01T07:31:03;13.15;;;9.88;;
69783;SDS011;57054;51.978;4.498;2023-03-01T07:33:29;12.90;;;10.25;;
69783;SDS011;57054;51.978;4.498;2023-03-01T07:35:55;14.65;;;10.75;;
69783;SDS011;57054;51.978;4.498;2023-03-01T07:38:22;14.25;;;10.10;;
69783;SDS011;57054;51.978;4.498;2023-03-01T07:40:48;14.30;;;10.88;;
69783;SDS011;57054;51.978;4.498;2023-03-01T07:43:13;15.00;;;11.05;;
69783;SDS011;57054;51.978;4.498;2023-03-01T07:45:38;14.50;;;11.38;;
69783;SDS011;57054;51.978;4.498;2023-03-01T07:48:04;14.32;;;11.70;;
69783;SDS011;57054;51.978;4.498;2023-03-01T07:50:29;15.82;;;11.70;;
69783;SDS011;57054;51.978;4.498;2023-03-01T07:52:55;14.63;;;10.73;;
69783;SDS011;57054;51.978;4.498;2023-03-01T07:55:20;16.33;;;12.30;;
69783;SDS011;57054;51.978;4.498;2023-03-01T07:57:45;14.90;;;11.73;;
69783;SDS011;57054;51.978;4.498;2023-03-01T08:00:11;15.98;;;11.93;;
69783;SDS011;57054;51.978;4.498;2023-03-01T08:02:37;16.35;;;12.18;;
69783;SDS011;57054;51.978;4.498;2023-03-01T08:05:03;17.40;;;12.55;;
69783;SDS011;57054;51.978;4.498;2023-03-01T08:07:29;16.02;;;12.45;;
69783;SDS011;57054;51.978;4.498;2023-03-01T08:09:54;18.30;;;12.35;;
69783;SDS011;57054;51.978;4.498;2023-03-01T08:12:19;16.58;;;12.90;;
69783;SDS011;57054;51.978;4.498;2023-03-01T08:14:45;16.15;;;12.90;;
69783;SDS011;57054;51.978;4.498;2023-03-01T08:17:13;17.83;;;12.82;;
69783;SDS011;57054;51.978;4.498;2023-03-01T08:19:39;16.40;;;12.52;;
69783;SDS011;57054;51.978;4.498;2023-03-01T08:22:04;17.33;;;11.88;;
69783;SDS011;57054;51.978;4.498;2023-03-01T08:24:30;17.75;;;12.27;;
69783;SDS011;57054;51.978;4.498;2023-03-01T08:26:55;15.73;;;12.50;;
69783;SDS011;57054;51.978;4.498;2023-03-01T08:29:21;17.73;;;12.68;;
69783;SDS011;57054;51.978;4.498;2023-03-01T08:31:47;18.90;;;13.40;;
69783;SDS011;57054;51.978;4.498;2023-03-01T08:34:14;19.90;;;13.02;;
69783;SDS011;57054;51.978;4.498;2023-03-01T08:36:42;15.00;;;11.63;;
69783;SDS011;57054;51.978;4.498;2023-03-01T08:39:10;17.97;;;12.60;;
69783;SDS011;57054;51.978;4.498;2023-03-01T08:41:37;20.25;;;13.15;;
69783;SDS011;57054;51.978;4.498;2023-03-01T08:44:03;17.58;;;13.50;;
69783;SDS011;57054;51.978;4.498;2023-03-01T08:46:30;17.40;;;13.07;;
69783;SDS011;57054;51.978;4.498;2023-03-01T08:48:58;15.27;;;11.85;;
69783;SDS011;57054;51.978;4.498;2023-03-01T08:51:24;15.48;;;12.02;;
69783;SDS011;57054;51.978;4.498;2023-03-01T08:53:50;17.00;;;12.02;;
69783;SDS011;57054;51.978;4.498;2023-03-01T08:56:16;16.58;;;12.38;;
69783;SDS011;57054;51.978;4.498;2023-03-01T08:58:46;18.05;;;13.10;;
69783;SDS011;57054;51.978;4.498;2023-03-01T09:01:14;13.63;;;10.85;;
69783;SDS011;57054;51.978;4.498;2023-03-01T09:03:41;13.52;;;11.27;;
69783;SDS011;57054;51.978;4.498;2023-03-01T09:06:08;14.55;;;11.07;;
69783;SDS011;57054;51.978;4.498;2023-03-01T09:08:34;16.58;;;10.95;;
69783;SDS011;57054;51.978;4.498;2023-03-01T09:11:04;18.13;;;12.18;;
69783;SDS011;57054;51.978;4.498;2023-03-01T09:13:32;13.65;;;10.50;;
69783;SDS011;57054;51.978;4.498;2023-03-01T09:15:58;12.43;;;10.10;;
69783;SDS011;57054;51.978;4.498;2023-03-01T09:18:25;14.75;;;11.15;;
69783;SDS011;57054;51.978;4.498;2023-03-01T09:20:51;14.98;;;10.43;;
69783;SDS011;57054;51.978;4.498;2023-03-01T09:23:16;16.77;;;11.23;;
69783;SDS011;57054;51.978;4.498;2023-03-01T09:25:41;15.68;;;11.15;;
69783;SDS011;57054;51.978;4.498;2023-03-01T09:28:07;14.23;;;10.57;;
69783;SDS011;57054;51.978;4.498;2023-03-01T09:30:32;14.95;;;11.40;;
69783;SDS011;57054;51.978;4.498;2023-03-01T09:32:57;15.80;;;10.93;;
69783;SDS011;57054;51.978;4.498;2023-03-01T09:35:23;20.25;;;10.85;;
69783;SDS011;57054;51.978;4.498;2023-03-01T09:37:49;15.68;;;10.63;;
69783;SDS011;57054;51.978;4.498;2023-03-01T09:40:16;13.50;;;9.40;;
69783;SDS011;57054;51.978;4.498;2023-03-01T09:42:58;14.00;;;10.00;;
69783;SDS011;57054;51.978;4.498;2023-03-01T09:45:35;19.05;;;8.95;;
69783;SDS011;57054;51.978;4.498;2023-03-01T09:48:06;12.77;;;9.52;;
69783;SDS011;57054;51.978;4.498;2023-03-01T09:50:40;16.95;;;8.82;;
69783;SDS011;57054;51.978;4.498;2023-03-01T09:53:10;14.48;;;7.88;;
69783;SDS011;57054;51.978;4.498;2023-03-01T09:55:42;10.85;;;7.50;;
69783;SDS011;57054;51.978;4.498;2023-03-01T10:03:42;12.18;;;7.22;;
69783;SDS011;57054;51.978;4.498;2023-03-01T10:06:12;7.43;;;6.72;;
69783;SDS011;57054;51.978;4.498;2023-03-01T10:09:03;8.07;;;7.25;;
69783;SDS011;57054;51.978;4.498;2023-03-01T10:11:37;11.13;;;7.13;;
69783;SDS011;57054;51.978;4.498;2023-03-01T10:14:15;9.32;;;5.88;;
69783;SDS011;57054;51.978;4.498;2023-03-01T10:20:23;9.57;;;6.07;;
69783;SDS011;57054;51.978;4.498;2023-03-01T10:23:03;11.02;;;6.60;;
69783;SDS011;57054;51.978;4.498;2023-03-01T10:28:03;9.68;;;6.07;;
69783;SDS011;57054;51.978;4.498;2023-03-01T10:30:36;8.75;;;6.05;;
69783;SDS011;57054;51.978;4.498;2023-03-01T10:33:49;10.15;;;5.53;;
69783;SDS011;57054;51.978;4.498;2023-03-01T10:36:02;10.75;;;5.57;;
69783;SDS011;57054;51.978;4.498;2023-03-01T10:38:28;7.88;;;5.45;;
69783;SDS011;57054;51.978;4.498;2023-03-01T10:40:57;9.73;;;6.07;;
69783;SDS011;57054;51.978;4.498;2023-03-01T10:43:26;7.05;;;6.32;;
69783;SDS011;57054;51.978;4.498;2023-03-01T10:46:19;9.57;;;5.68;;
69783;SDS011;57054;51.978;4.498;2023-03-01T10:49:12;9.15;;;5.78;;
69783;SDS011;57054;51.978;4.498;2023-03-01T10:51:49;8.05;;;6.10;;
69783;SDS011;57054;51.978;4.498;2023-03-01T10:56:49;11.40;;;7.43;;
69783;SDS011;57054;51.978;4.498;2023-03-01T10:59:30;10.32;;;7.90;;
69783;SDS011;57054;51.978;4.498;2023-03-01T11:02:22;10.15;;;7.72;;
69783;SDS011;57054;51.978;4.498;2023-03-01T11:05:00;12.40;;;8.07;;
69783;SDS011;57054;51.978;4.498;2023-03-01T11:07:32;9.45;;;7.60;;
69783;SDS011;57054;51.978;4.498;2023-03-01T11:10:23;8.63;;;6.97;;
69783;SDS011;57054;51.978;4.498;2023-03-01T11:12:49;7.75;;;6.35;;
69783;SDS011;57054;51.978;4.498;2023-03-01T11:15:23;10.70;;;7.13;;
69783;SDS011;57054;51.978;4.498;2023-03-01T11:17:51;8.38;;;6.68;;
69783;SDS011;57054;51.978;4.498;2023-03-01T11:20:25;9.98;;;6.55;;
69783;SDS011;57054;51.978;4.498;2023-03-01T11:22:55;9.10;;;7.18;;
69783;SDS011;57054;51.978;4.498;2023-03-01T11:25:32;11.00;;;6.97;;
69783;SDS011;57054;51.978;4.498;2023-03-01T11:28:02;12.18;;;8.45;;
69783;SDS011;57054;51.978;4.498;2023-03-01T11:36:00;13.32;;;8.38;;
69783;SDS011;57054;51.978;4.498;2023-03-01T11:38:30;11.75;;;8.05;;
69783;SDS011;57054;51.978;4.498;2023-03-01T11:46:28;10.70;;;8.40;;
69783;SDS011;57054;51.978;4.498;2023-03-01T11:55:45;10.20;;;7.93;;
69783;SDS011;57054;51.978;4.498;2023-03-01T12:26:33;8.70;;;7.70;;
69783;SDS011;57054;51.978;4.498;2023-03-01T12:32:00;9.68;;;7.00;;
69783;SDS011;57054;51.978;4.498;2023-03-01T12:34:50;9.50;;;7.03;;
69783;SDS011;57054;51.978;4.498;2023-03-01T12:43:03;13.32;;;8.18;;
69783;SDS011;57054;51.978;4.498;2023-03-01T12:50:52;8.07;;;7.27;;
69783;SDS011;57054;51.978;4.498;2023-03-01T12:54:01;12.18;;;7.57;;
69783;SDS011;57054;51.978;4.498;2023-03-01T12:56:13;9.45;;;7.35;;
69783;SDS011;57054;51.978;4.498;2023-03-01T12:58:51;8.70;;;7.35;;
69783;SDS011;57054;51.978;4.498;2023-03-01T13:01:39;9.13;;;7.57;;
69783;SDS011;57054;51.978;4.498;2023-03-01T13:04:18;9.38;;;6.55;;
69783;SDS011;57054;51.978;4.498;2023-03-01T13:09:32;11.02;;;7.22;;
69783;SDS011;57054;51.978;4.498;2023-03-01T13:11:59;12.63;;;7.82;;
69783;SDS011;57054;51.978;4.498;2023-03-01T13:16:51;9.10;;;6.50;;
69783;SDS011;57054;51.978;4.498;2023-03-01T13:19:18;6.53;;;5.60;;
69783;SDS011;57054;51.978;4.498;2023-03-01T13:21:46;7.93;;;6.10;;
69783;SDS011;57054;51.978;4.498;2023-03-01T13:27:09;4.93;;;4.53;;
69783;SDS011;57054;51.978;4.498;2023-03-01T13:29:47;5.55;;;5.00;;
69783;SDS011;57054;51.978;4.498;2023-03-01T13:32:29;7.82;;;5.63;;
69783;SDS011;57054;51.978;4.498;2023-03-01T13:35:40;5.80;;;5.00;;
69783;SDS011;57054;51.978;4.498;2023-03-01T13:37:51;7.37;;;5.37;;
69783;SDS011;57054;51.978;4.498;2023-03-01T13:42:47;5.65;;;4.35;;
69783;SDS011;57054;51.978;4.498;2023-03-01T13:45:20;6.80;;;4.68;;
69783;SDS011;57054;51.978;4.498;2023-03-01T13:47:51;8.00;;;4.90;;
69783;SDS011;57054;51.978;4.498;2023-03-01T13:50:23;5.50;;;5.00;;
69783;SDS011;57054;51.978;4.498;2023-03-01T13:53:02;4.72;;;4.32;;
69783;SDS011;57054;51.978;4.498;2023-03-01T13:55:42;5.35;;;4.82;;
69783;SDS011;57054;51.978;4.498;2023-03-01T13:58:15;5.40;;;4.25;;
69783;SDS011;57054;51.978;4.498;2023-03-01T14:00:44;5.45;;;4.88;;
69783;SDS011;57054;51.978;4.498;2023-03-01T14:03:11;5.57;;;5.03;;
69783;SDS011;57054;51.978;4.498;2023-03-01T14:05:40;5.28;;;4.78;;
69783;SDS011;57054;51.978;4.498;2023-03-01T14:08:21;5.38;;;4.65;;
69783;SDS011;57054;51.978;4.498;2023-03-01T14:10:52;5.22;;;4.72;;
69783;SDS011;57054;51.978;4.498;2023-03-01T14:13:30;5.50;;;4.85;;
69783;SDS011;57054;51.978;4.498;2023-03-01T14:18:44;6.70;;;5.03;;
69783;SDS011;57054;51.978;4.498;2023-03-01T14:21:22;7.20;;;4.60;;
69783;SDS011;57054;51.978;4.498;2023-03-01T14:23:48;4.50;;;4.07;;
69783;SDS011;57054;51.978;4.498;2023-03-01T14:26:13;14.07;;;5.15;;
69783;SDS011;57054;51.978;4.498;2023-03-01T14:28:46;6.95;;;4.72;;
69783;SDS011;57054;51.978;4.498;2023-03-01T14:31:32;4.95;;;4.45;;
69783;SDS011;57054;51.978;4.498;2023-03-01T14:34:01;5.03;;;4.53;;
69783;SDS011;57054;51.978;4.498;2023-03-01T14:36:28;5.07;;;4.57;;
69783;SDS011;57054;51.978;4.498;2023-03-01T14:38:55;6.15;;;4.72;;
69783;SDS011;57054;51.978;4.498;2023-03-01T14:41:24;7.32;;;5.15;;
69783;SDS011;57054;51.978;4.498;2023-03-01T14:44:00;5.82;;;4.82;;
69783;SDS011;57054;51.978;4.498;2023-03-01T14:46:38;5.45;;;4.95;;
69783;SDS011;57054;51.978;4.498;2023-03-01T14:49:13;8.60;;;5.03;;
69783;SDS011;57054;51.978;4.498;2023-03-01T14:51:55;6.97;;;5.65;;
69783;SDS011;57054;51.978;4.498;2023-03-01T14:54:23;8.65;;;4.80;;
69783;SDS011;57054;51.978;4.498;2023-03-01T14:56:52;5.22;;;4.75;;
69783;SDS011;57054;51.978;4.498;2023-03-01T14:59:22;4.85;;;4.30;;
69783;SDS011;57054;51.978;4.498;2023-03-01T15:01:49;7.03;;;4.88;;
69783;SDS011;57054;51.978;4.498;2023-03-01T15:04:16;4.88;;;4.47;;
69783;SDS011;57054;51.978;4.498;2023-03-01T15:06:43;5.20;;;4.70;;
69783;SDS011;57054;51.978;4.498;2023-03-01T15:09:12;4.75;;;4.35;;
69783;SDS011;57054;51.978;4.498;2023-03-01T15:11:41;6.35;;;4.45;;
69783;SDS011;57054;51.978;4.498;2023-03-01T15:14:27;5.97;;;5.25;;
69783;SDS011;57054;51.978;4.498;2023-03-01T15:17:19;6.47;;;4.75;;
69783;SDS011;57054;51.978;4.498;2023-03-01T15:19:51;5.05;;;4.15;;
69783;SDS011;57054;51.978;4.498;2023-03-01T15:22:16;7.40;;;4.75;;
69783;SDS011;57054;51.978;4.498;2023-03-01T15:24:46;6.47;;;4.65;;
69783;SDS011;57054;51.978;4.498;2023-03-01T15:27:18;4.43;;;3.90;;
69783;SDS011;57054;51.978;4.498;2023-03-01T15:29:55;5.38;;;4.78;;
69783;SDS011;57054;51.978;4.498;2023-03-01T15:32:31;6.45;;;4.35;;
69783;SDS011;57054;51.978;4.498;2023-03-01T15:34:58;4.63;;;4.20;;
69783;SDS011;57054;51.978;4.498;2023-03-01T15:40:00;5.07;;;3.90;;
69783;SDS011;57054;51.978;4.498;2023-03-01T15:45:10;4.80;;;4.07;;
69783;SDS011;57054;51.978;4.498;2023-03-01T15:47:38;4.10;;;3.75;;
69783;SDS011;57054;51.978;4.498;2023-03-01T15:50:11;4.10;;;3.70;;
69783;SDS011;57054;51.978;4.498;2023-03-01T15:52:45;4.85;;;4.18;;
69783;SDS011;57054;51.978;4.498;2023-03-01T15:55:18;7.93;;;4.80;;
69783;SDS011;57054;51.978;4.498;2023-03-01T15:57:45;5.00;;;4.22;;
69783;SDS011;57054;51.978;4.498;2023-03-01T16:00:12;4.50;;;4.10;;
69783;SDS011;57054;51.978;4.498;2023-03-01T16:02:39;4.93;;;4.50;;
69783;SDS011;57054;51.978;4.498;2023-03-01T16:05:05;6.63;;;4.65;;
69783;SDS011;57054;51.978;4.498;2023-03-01T16:07:40;5.65;;;4.70;;
69783;SDS011;57054;51.978;4.498;2023-03-01T16:10:05;5.28;;;4.53;;
69783;SDS011;57054;51.978;4.498;2023-03-01T16:12:30;8.88;;;5.22;;
69783;SDS011;57054;51.978;4.498;2023-03-01T16:14:56;7.82;;;5.03;;
69783;SDS011;57054;51.978;4.498;2023-03-01T16:17:22;5.65;;;4.88;;
69783;SDS011;57054;51.978;4.498;2023-03-01T16:19:48;7.43;;;4.82;;
69783;SDS011;57054;51.978;4.498;2023-03-01T16:22:13;6.25;;;4.97;;
69783;SDS011;57054;51.978;4.498;2023-03-01T16:24:39;5.55;;;4.55;;
69783;SDS011;57054;51.978;4.498;2023-03-01T16:27:05;5.90;;;5.30;;
69783;SDS011;57054;51.978;4.498;2023-03-01T16:29:31;7.50;;;4.53;;
69783;SDS011;57054;51.978;4.498;2023-03-01T16:31:56;6.75;;;5.13;;
69783;SDS011;57054;51.978;4.498;2023-03-01T16:34:25;5.40;;;4.60;;